Time;durP1;ratioP1;P1;durP2;ratioP2;P2;SDS_P1;SDS_P2;PMS_P1;PMS_P2;Temp;Humidity;BMP_temperature;BMP_pressure;BME280_temperature;BME280_humidity;BME280_pressure;Samples;Min_cycle;Max_cycle;Signal;HPM_P1;HPM_P2
2021/04/10 00:02:12;;;;;;;3.80;2.90;;;;;;;6.76;49.82;98583.44;5056152;28;20039;-64
2021/04/10 00:04:38;;;;;;;2.93;2.63;;;;;;;6.75;49.47;98578.34;5054830;28;20095;-64
2021/04/10 00:07:04;;;;;;;3.80;2.80;;;;;;;6.63;50.02;98578.41;5067495;28;20155;-64
2021/04/10 00:09:29;;;;;;;6.10;2.77;;;;;;;6.63;50.05;98570.75;5052229;28;20082;-64
2021/04/10 00:11:54;;;;;;;5.33;4.17;;;;;;;6.50;50.95;98575.06;5053478;28;20112;-64
2021/04/10 00:14:20;;;;;;;4.00;2.60;;;;;;;6.43;51.24;98571.69;5054017;28;20056;-64
2021/04/10 00:16:45;;;;;;;4.37;3.20;;;;;;;6.37;51.27;98574.25;5053891;28;20079;-64
2021/04/10 00:19:12;;;;;;;5.33;3.40;;;;;;;6.29;51.76;98570.88;5052310;28;20051;-64
2021/04/10 00:21:38;;;;;;;7.10;2.80;;;;;;;6.20;52.34;98573.44;5055974;28;20033;-64
2021/04/10 00:24:03;;;;;;;4.13;2.90;;;;;;;6.18;52.36;98571.78;5054069;28;20094;-64
2021/04/10 00:26:29;;;;;;;3.63;3.23;;;;;;;6.07;52.51;98568.41;5054211;28;20124;-64
2021/04/10 00:28:54;;;;;;;5.43;3.23;;;;;;;6.03;52.58;98574.34;5054741;28;20028;-64
2021/04/10 00:31:20;;;;;;;5.87;3.00;;;;;;;5.91;53.18;98573.53;5055231;28;20282;-63
2021/04/10 00:33:46;;;;;;;5.80;3.23;;;;;;;5.92;53.02;98569.28;5053980;28;20098;-64
2021/04/10 00:36:12;;;;;;;6.03;2.83;;;;;;;5.82;52.87;98570.94;5054943;28;20115;-64
2021/04/10 00:38:38;;;;;;;8.23;3.37;;;;;;;5.79;53.30;98570.09;5054613;28;20087;-64
2021/04/10 00:41:06;;;;;;;4.43;2.90;;;;;;;5.79;53.55;98572.66;5068209;28;20115;-64
2021/04/10 00:43:32;;;;;;;4.93;2.87;;;;;;;5.81;53.30;98569.25;5054562;28;20024;-64
2021/04/10 00:45:57;;;;;;;3.47;2.30;;;;;;;5.79;53.25;98565.03;5055644;28;20389;-64
2021/04/10 00:48:23;;;;;;;2.83;2.60;;;;;;;5.70;53.55;98565.03;5053697;28;20021;-64
2021/04/10 00:50:52;;;;;;;6.23;3.47;;;;;;;5.68;53.82;98564.19;5054432;28;20032;-64
2021/04/10 00:53:22;;;;;;;3.63;2.50;;;;;;;5.65;53.89;98556.53;5055929;28;20029;-64
2021/04/10 00:55:48;;;;;;;4.20;2.70;;;;;;;5.61;54.17;98560.78;5054416;28;20041;-64
2021/04/10 00:58:14;;;;;;;4.70;3.27;;;;;;;5.56;54.29;98557.41;5055399;28;20035;-64
2021/04/10 01:00:40;;;;;;;5.93;3.10;;;;;;;5.59;54.71;98557.41;5052661;28;20475;-64
2021/04/10 01:03:06;;;;;;;7.20;2.87;;;;;;;5.54;54.13;98556.56;5055186;28;20029;-64
2021/04/10 01:05:32;;;;;;;4.83;2.57;;;;;;;5.39;54.60;98557.41;5054202;28;20144;-64
2021/04/10 01:07:58;;;;;;;4.87;2.63;;;;;;;5.28;55.53;98563.34;5051140;28;20083;-64
2021/04/10 01:10:25;;;;;;;4.00;3.00;;;;;;;5.19;55.73;98561.63;5051648;28;20032;-64
2021/04/10 01:13:14;;;;;;;5.80;2.63;;;;;;;5.15;55.72;98559.09;5051632;28;20032;-64
2021/04/10 01:16:00;;;;;;;3.20;2.63;;;;;;;5.03;56.10;98563.31;5054114;28;20041;-63
2021/04/10 01:18:25;;;;;;;;;;;;;;;4.97;56.63;98562.44;5047806;28;20413;-63
2021/04/10 01:20:57;;;;;;;3.33;2.50;;;;;;;4.95;56.22;98561.59;5055046;28;19912;-63
2021/04/10 01:23:28;;;;;;;3.97;2.30;;;;;;;4.85;56.48;98563.25;5052581;28;20025;-63
2021/04/10 01:25:59;;;;;;;5.97;3.77;;;;;;;4.71;57.15;98566.63;5051961;28;20508;-65
2021/04/10 01:28:37;;;;;;;3.37;2.37;;;;;;;4.65;58.01;98564.06;5052330;28;20386;-63
2021/04/10 01:31:03;;;;;;;5.43;3.03;;;;;;;4.54;57.63;98564.03;5053514;28;20362;-65
2021/04/10 01:33:32;;;;;;;4.83;2.57;;;;;;;4.52;57.42;98558.09;5051130;28;20021;-65
2021/04/10 01:36:00;;;;;;;6.03;3.17;;;;;;;4.57;57.13;98562.34;5053630;28;20036;-63
2021/04/10 01:38:31;;;;;;;4.60;2.60;;;;;;;4.55;57.12;98566.56;5052398;28;20037;-63
2021/04/10 01:41:00;;;;;;;4.40;2.43;;;;;;;4.64;57.14;98559.81;5055618;28;20025;-64
2021/04/10 01:43:32;;;;;;;4.10;3.00;;;;;;;4.62;57.25;98554.75;5056759;28;20029;-64
2021/04/10 01:45:58;;;;;;;4.70;2.43;;;;;;;4.54;57.80;98552.16;5057147;28;20025;-63
2021/04/10 01:48:26;;;;;;;4.53;2.97;;;;;;;4.56;58.03;98552.16;5056711;28;20139;-63
2021/04/10 01:50:53;;;;;;;3.87;2.40;;;;;;;4.52;57.66;98547.94;5058731;28;20064;-63
2021/04/10 01:53:19;;;;;;;4.27;2.63;;;;;;;4.38;58.29;98547.03;5057780;28;20028;-63
2021/04/10 01:55:50;;;;;;;3.73;2.40;;;;;;;4.34;58.24;98540.22;5058607;28;20083;-63
2021/04/10 01:58:17;;;;;;;4.53;2.57;;;;;;;4.37;58.39;98543.63;5056640;28;20029;-63
2021/04/10 02:00:45;;;;;;;4.07;2.50;;;;;;;4.44;58.33;98541.97;5058252;28;20044;-63
2021/04/10 02:03:13;;;;;;;6.20;2.40;;;;;;;4.46;58.62;98543.66;5057135;28;20067;-63
2021/04/10 02:05:39;;;;;;;2.60;2.27;;;;;;;4.53;58.50;98547.94;5057800;28;20059;-63
2021/04/10 02:08:08;;;;;;;3.80;1.77;;;;;;;4.53;58.04;98545.41;5057252;28;20056;-63
2021/04/10 02:10:34;;;;;;;5.33;2.50;;;;;;;4.44;58.12;98547.06;5058165;28;20021;-63
2021/04/10 02:12:59;;;;;;;6.60;2.87;;;;;;;4.47;57.95;98544.53;5057132;28;20024;-64
2021/04/10 02:15:25;;;;;;;4.73;2.20;;;;;;;4.50;58.31;98547.06;5057539;28;20029;-63
2021/04/10 02:17:53;;;;;;;6.03;2.40;;;;;;;4.53;57.52;98547.09;5057352;28;20407;-64
2021/04/10 02:20:19;;;;;;;4.77;2.40;;;;;;;4.56;57.68;98544.56;5057066;28;20075;-64
2021/04/10 02:22:51;;;;;;;5.57;2.30;;;;;;;4.50;57.46;98531.84;5058566;28;20283;-64
2021/04/10 02:25:18;;;;;;;4.63;2.47;;;;;;;4.57;57.71;98542.03;5053618;28;20079;-63
2021/04/10 02:27:44;;;;;;;2.93;1.90;;;;;;;4.50;57.54;98541.97;5056724;28;20032;-65
2021/04/10 02:30:10;;;;;;;3.17;2.10;;;;;;;4.39;57.45;98543.66;5055165;28;20025;-65
2021/04/10 02:32:41;;;;;;;2.83;1.80;;;;;;;4.29;57.84;98537.69;5058258;28;20036;-65
2021/04/10 02:35:12;;;;;;;3.40;2.63;;;;;;;4.21;58.34;98546.94;5057087;28;20260;-63
2021/04/10 02:37:39;;;;;;;2.87;2.60;;;;;;;4.23;58.81;98544.44;5056301;28;20465;-65
2021/04/10 02:40:07;;;;;;;5.00;2.20;;;;;;;4.13;58.89;98549.44;5056882;28;20079;-65
2021/04/10 02:42:37;;;;;;;2.40;1.97;;;;;;;4.24;58.31;98546.97;5057740;28;20047;-65
2021/04/10 02:45:04;;;;;;;3.93;1.90;;;;;;;4.25;58.05;98553.72;5057067;28;20032;-65
2021/04/10 02:47:32;;;;;;;2.33;2.13;;;;;;;4.14;58.24;98548.63;5055150;28;20025;-64
2021/04/10 02:50:03;;;;;;;3.13;2.17;;;;;;;4.08;58.82;98556.19;5057003;28;20036;-64
2021/04/10 02:52:36;;;;;;;4.03;2.10;;;;;;;4.04;59.16;98553.63;5054680;28;20055;-64
2021/04/10 02:55:03;;;;;;;3.57;2.37;;;;;;;4.05;58.72;98556.19;5053084;28;20028;-64
2021/04/10 02:57:30;;;;;;;4.37;2.70;;;;;;;4.16;58.38;98558.75;5055423;28;20298;-64
2021/04/10 02:59:59;;;;;;;3.30;2.13;;;;;;;4.20;57.83;98557.09;5056693;28;20024;-64
2021/04/10 03:02:24;;;;;;;2.50;2.30;;;;;;;4.08;58.75;98561.25;5056311;28;20028;-64
2021/04/10 03:04:51;;;;;;;2.53;1.90;;;;;;;3.93;58.84;98565.41;5043728;28;20124;-64
2021/04/10 03:07:18;;;;;;;4.00;2.50;;;;;;;3.81;60.10;98558.56;5030615;28;20079;-64
2021/04/10 03:09:46;;;;;;;2.43;1.67;;;;;;;3.74;60.05;98568.63;5035348;28;20013;-64
2021/04/10 03:12:13;;;;;;;2.30;2.07;;;;;;;3.77;60.20;98561.94;5034332;28;20080;-64
2021/04/10 03:14:39;;;;;;;4.60;2.43;;;;;;;3.67;59.90;98566.06;5019315;28;20013;-64
2021/04/10 03:17:06;;;;;;;2.40;1.93;;;;;;;3.64;59.71;98576.19;5041554;28;20305;-64
2021/04/10 03:19:34;;;;;;;1.97;1.87;;;;;;;3.63;59.64;98571.13;5028442;28;20041;-64
2021/04/10 03:22:00;;;;;;;2.83;1.87;;;;;;;3.52;61.06;98570.19;5021690;28;20040;-64
2021/04/10 03:24:25;;;;;;;3.53;1.77;;;;;;;3.44;60.68;98565.03;5033100;28;20029;-64
2021/04/10 03:26:51;;;;;;;5.33;3.13;;;;;;;3.35;61.47;98567.53;5035415;28;20271;-64
2021/04/10 03:29:17;;;;;;;4.43;2.80;;;;;;;3.32;61.17;98570.00;5036217;28;20241;-64
2021/04/10 03:31:42;;;;;;;3.33;2.27;;;;;;;3.27;61.80;98576.72;5019197;28;20382;-64
2021/04/10 03:34:08;;;;;;;6.17;3.27;;;;;;;3.28;61.70;98585.16;5033252;28;20282;-64
2021/04/10 03:36:33;;;;;;;3.57;2.93;;;;;;;3.25;61.65;98580.94;5035752;28;20040;-64
2021/04/10 03:39:00;;;;;;;2.87;2.33;;;;;;;3.24;61.29;98581.75;5034754;28;20041;-64
2021/04/10 03:41:25;;;;;;;2.27;1.87;;;;;;;3.21;61.45;98579.22;5035763;28;20388;-64
2021/04/10 03:43:51;;;;;;;5.43;2.23;;;;;;;3.22;61.75;98588.50;5034200;28;20029;-64
2021/04/10 03:46:16;;;;;;;2.60;1.77;;;;;;;3.15;61.62;98590.13;5031805;28;20341;-64
2021/04/10 03:48:42;;;;;;;4.73;2.13;;;;;;;3.14;62.03;98592.66;5033935;28;20109;-64
2021/04/10 03:51:08;;;;;;;3.83;2.20;;;;;;;3.15;62.15;98595.19;5031406;28;20061;-65
2021/04/10 03:53:33;;;;;;;5.40;2.10;;;;;;;3.05;62.64;98592.56;5028810;28;20322;-65
2021/04/10 03:55:58;;;;;;;3.03;2.43;;;;;;;2.99;62.46;98602.63;5033244;28;20572;-64
2021/04/10 03:58:24;;;;;;;7.07;2.80;;;;;;;3.02;62.65;98587.44;5031364;28;20417;-64
2021/04/10 04:00:49;;;;;;;4.03;2.97;;;;;;;3.05;62.19;98601.03;5036690;28;20699;-64
2021/04/10 04:03:15;;;;;;;4.80;3.33;;;;;;;2.99;62.31;98607.69;5034936;28;20111;-65
2021/04/10 04:05:40;;;;;;;2.60;2.40;;;;;;;2.94;63.08;98614.38;5053601;28;20561;-63
2021/04/10 04:08:06;;;;;;;3.77;2.80;;;;;;;2.86;62.84;98615.97;5054511;28;20128;-63
2021/04/10 04:10:32;;;;;;;8.33;3.23;;;;;;;2.82;63.64;98611.72;5055823;28;20276;-63
2021/04/10 04:12:58;;;;;;;4.73;2.60;;;;;;;2.74;63.38;98604.03;5066518;28;20032;-62
2021/04/10 04:15:23;;;;;;;6.43;2.63;;;;;;;2.86;63.37;98614.28;5053361;28;20115;-62
2021/04/10 04:17:49;;;;;;;4.10;2.63;;;;;;;2.80;63.17;98615.94;5053912;28;20055;-64
2021/04/10 04:20:14;;;;;;;4.37;2.67;;;;;;;2.74;63.79;98621.75;5055085;28;20132;-64
2021/04/10 04:22:40;;;;;;;3.47;3.03;;;;;;;2.68;64.11;98621.66;5054142;28;20036;-65
2021/04/10 04:25:07;;;;;;;6.20;2.83;;;;;;;2.73;63.93;98631.03;5054685;28;20382;-63
2021/04/10 04:27:36;;;;;;;8.90;3.37;;;;;;;2.79;64.19;98620.13;5053994;28;20041;-63
2021/04/10 04:30:23;;;;;;;5.10;2.63;;;;;;;2.80;64.10;98626.06;5045320;28;20029;-63
2021/04/10 04:32:49;;;;;;;5.60;2.83;;;;;;;2.71;64.23;98621.72;5052300;28;20083;-64
2021/04/10 04:35:15;;;;;;;4.03;2.60;;;;;;;2.80;64.11;98623.53;5056020;28;20060;-64
2021/04/10 04:37:41;;;;;;;2.73;2.33;;;;;;;2.78;64.32;98620.97;5053186;28;20313;-64
2021/04/10 04:40:08;;;;;;;3.27;2.30;;;;;;;2.93;64.04;98618.59;5055166;28;20035;-64
2021/04/10 04:42:34;;;;;;;4.37;2.30;;;;;;;2.99;63.33;98621.19;5054117;28;20048;-64
2021/04/10 04:45:00;;;;;;;2.50;2.23;;;;;;;3.06;62.97;98628.00;5054837;28;20037;-64
2021/04/10 04:47:25;;;;;;;3.30;2.40;;;;;;;3.09;63.29;98627.22;5055370;28;20043;-64
2021/04/10 04:49:51;;;;;;;5.17;2.50;;;;;;;3.07;62.97;98622.13;5052851;28;20028;-64
2021/04/10 04:52:17;;;;;;;3.80;3.10;;;;;;;3.05;63.39;98631.41;5055036;28;20308;-64
2021/04/10 04:54:43;;;;;;;5.53;2.67;;;;;;;3.05;63.04;98626.34;5054358;28;20059;-64
2021/04/10 04:57:08;;;;;;;4.53;2.20;;;;;;;3.10;63.34;98636.50;5053543;28;20132;-64
2021/04/10 04:59:34;;;;;;;4.13;2.07;;;;;;;3.17;62.72;98631.53;5054532;28;20059;-64
2021/04/10 05:01:59;;;;;;;5.40;2.43;;;;;;;3.26;62.43;98630.78;5054011;28;20061;-65
2021/04/10 05:04:25;;;;;;;2.23;2.03;;;;;;;3.34;62.50;98639.28;5053326;28;20049;-64
2021/04/10 05:06:51;;;;;;;3.10;2.03;;;;;;;3.38;62.26;98641.03;5052612;28;20409;-64
2021/04/10 05:09:16;;;;;;;2.60;2.00;;;;;;;3.46;62.30;98644.47;5052723;28;20041;-63
2021/04/10 05:11:42;;;;;;;3.33;2.20;;;;;;;3.48;62.90;98650.38;5054174;28;20349;-64
2021/04/10 05:14:07;;;;;;;5.60;2.87;;;;;;;3.60;62.51;98655.59;5052892;28;20036;-65
2021/04/10 05:16:32;;;;;;;2.77;1.80;;;;;;;3.74;62.21;98654.84;5057092;28;20100;-64
2021/04/10 05:18:58;;;;;;;2.73;2.47;;;;;;;3.84;61.79;98662.53;5059115;28;20025;-64
2021/04/10 05:21:25;;;;;;;3.03;2.47;;;;;;;3.98;61.72;98662.66;5057837;28;20033;-64
2021/04/10 05:23:50;;;;;;;5.47;2.83;;;;;;;4.09;61.20;98664.44;5058453;28;20029;-64
2021/04/10 05:26:16;;;;;;;4.53;2.53;;;;;;;4.23;60.76;98673.81;5058258;28;20037;-63
2021/04/10 05:28:42;;;;;;;4.93;2.97;;;;;;;4.36;60.20;98679.00;5058449;28;20055;-63
2021/04/10 05:31:07;;;;;;;4.77;2.97;;;;;;;4.52;60.13;98674.84;5055468;28;20037;-63
2021/04/10 05:33:33;;;;;;;6.00;3.60;;;;;;;4.69;59.12;98672.41;5058257;28;20037;-63
2021/04/10 05:35:59;;;;;;;6.53;3.70;;;;;;;4.77;58.91;98670.75;5056566;28;20025;-63
2021/04/10 05:38:25;;;;;;;5.93;3.73;;;;;;;4.93;58.38;98675.03;5057889;28;20313;-63
2021/04/10 05:40:51;;;;;;;6.03;3.77;;;;;;;5.12;57.44;98671.75;5056397;28;20028;-63
2021/04/10 05:43:16;;;;;;;7.17;4.33;;;;;;;5.28;57.15;98673.47;5057695;28;20074;-65
2021/04/10 05:45:41;;;;;;;3.77;3.33;;;;;;;5.48;56.99;98669.28;5057823;28;20043;-65
2021/04/10 05:48:08;;;;;;;5.20;3.63;;;;;;;5.67;56.57;98671.84;5057801;28;20043;-65
2021/04/10 05:50:33;;;;;;;5.73;4.20;;;;;;;5.85;56.31;98665.09;5057783;28;20131;-64
2021/04/10 05:52:58;;;;;;;5.97;3.80;;;;;;;6.00;55.86;98664.25;5057851;28;20184;-65
2021/04/10 05:55:24;;;;;;;3.57;3.17;;;;;;;6.20;55.36;98669.31;5056775;28;20282;-65
2021/04/10 05:57:49;;;;;;;3.87;2.90;;;;;;;6.36;54.54;98674.44;5058046;28;20040;-65
2021/04/10 06:00:15;;;;;;;4.43;3.33;;;;;;;6.56;54.93;98676.91;5055554;28;20091;-65
2021/04/10 06:02:41;;;;;;;4.37;3.53;;;;;;;6.73;54.88;98681.97;5058168;28;20378;-65
2021/04/10 06:05:07;;;;;;;3.57;3.10;;;;;;;6.91;54.29;98681.91;5056894;28;20068;-65
2021/04/10 06:07:32;;;;;;;8.00;4.30;;;;;;;7.04;54.36;98686.13;5057127;28;20025;-64
2021/04/10 06:09:58;;;;;;;8.67;3.60;;;;;;;7.22;55.11;98688.56;5056401;28;20051;-64
2021/04/10 06:12:23;;;;;;;5.40;3.30;;;;;;;7.37;55.24;98690.19;5057035;28;20365;-64
2021/04/10 06:14:49;;;;;;;4.80;3.17;;;;;;;7.35;55.40;98686.78;5056456;28;20032;-64
2021/04/10 06:17:16;;;;;;;5.23;2.50;;;;;;;7.52;54.93;98695.19;5054574;28;20064;-64
2021/04/10 06:19:41;;;;;;;3.30;2.80;;;;;;;7.61;54.89;98691.75;5057165;28;20033;-65
2021/04/10 06:22:07;;;;;;;4.57;2.80;;;;;;;7.75;55.01;98687.41;5052257;28;20396;-62
2021/04/10 06:24:32;;;;;;;6.00;2.67;;;;;;;7.90;54.79;98692.41;5054823;28;20028;-63
2021/04/10 06:26:57;;;;;;;6.10;2.63;;;;;;;7.99;54.97;98702.53;5051913;28;20028;-64
2021/04/10 06:29:23;;;;;;;3.53;2.87;;;;;;;8.13;54.13;98695.63;5056983;28;20897;-64
2021/04/10 06:31:48;;;;;;;3.43;2.73;;;;;;;8.25;53.79;98695.53;5056898;28;20029;-64
2021/04/10 06:34:14;;;;;;;5.13;2.83;;;;;;;8.33;53.90;98694.63;5054652;28;20029;-64
2021/04/10 06:36:39;;;;;;;6.73;2.73;;;;;;;8.27;54.63;98704.00;5054799;28;20109;-64
2021/04/10 06:39:05;;;;;;;5.70;2.70;;;;;;;8.52;53.84;98698.72;5055646;28;20098;-64
2021/04/10 06:41:35;;;;;;;4.93;3.67;;;;;;;8.68;53.63;98696.00;5054808;28;20064;-64
2021/04/10 06:44:04;;;;;;;3.90;3.17;;;;;;;8.80;53.25;98705.22;5062542;28;20077;-64
2021/04/10 06:46:33;;;;;;;5.07;3.00;;;;;;;8.93;53.14;98703.38;5055831;28;20066;-64
2021/04/10 06:48:59;;;;;;;5.03;3.20;;;;;;;8.92;53.98;98699.97;5055875;28;20070;-64
2021/04/10 06:51:25;;;;;;;8.17;4.80;;;;;;;8.96;54.47;98711.00;5055262;28;20056;-64
2021/04/10 06:53:53;;;;;;;4.87;3.23;;;;;;;9.00;53.98;98713.53;5054314;28;20499;-64
2021/04/10 06:56:23;;;;;;;5.30;3.00;;;;;;;9.07;54.23;98714.31;5056095;28;20032;-64
2021/04/10 06:59:11;;;;;;;5.47;3.57;;;;;;;9.23;53.75;98709.84;5055300;28;20385;-64
2021/04/10 07:01:39;;;;;;;4.97;2.97;;;;;;;9.37;52.71;98720.78;5054677;28;20029;-64
2021/04/10 07:04:05;;;;;;;8.00;3.57;;;;;;;9.21;53.16;98717.53;5055444;28;20052;-64
2021/04/10 07:06:31;;;;;;;2.90;2.43;;;;;;;9.37;53.16;98710.53;5057703;28;20574;-64
2021/04/10 07:08:58;;;;;;;6.03;2.80;;;;;;;9.45;52.55;98706.16;5054465;28;20033;-64
2021/04/10 07:11:24;;;;;;;3.20;2.90;;;;;;;9.69;52.36;98713.50;5039407;28;20060;-69
2021/04/10 07:13:49;;;;;;;5.47;2.90;;;;;;;9.84;50.77;98709.88;5061822;28;20037;-65
2021/04/10 07:16:15;;;;;;;4.77;3.27;;;;;;;9.83;50.95;98703.91;5058990;28;20421;-64
2021/04/10 07:18:40;;;;;;;5.27;2.70;;;;;;;9.96;50.50;98709.69;5058292;28;20029;-63
2021/04/10 07:21:20;;;;;;;3.83;2.47;;;;;;;10.03;51.48;98716.41;5054423;28;20117;-62
2021/04/10 07:23:56;;;;;;;5.70;2.90;;;;;;;10.15;51.21;98713.66;5056986;28;20136;-63
2021/04/10 07:26:57;;;;;;;6.10;3.03;;;;;;;10.42;49.43;98722.63;5056260;28;20033;-66
2021/04/10 07:29:36;;;;;;;3.83;2.70;;;;;;;10.63;49.00;98718.84;5059666;28;20148;-63
2021/04/10 07:32:22;;;;;;;9.40;3.70;;;;;;;10.77;48.76;98722.03;5059073;28;20063;-63
2021/04/10 07:34:48;;;;;;;7.73;3.87;;;;;;;10.71;49.09;98720.41;5055378;28;20055;-63
2021/04/10 07:37:37;;;;;;;8.60;4.13;;;;;;;10.78;49.31;98714.28;5054800;28;20379;-62
2021/04/10 07:40:23;;;;;;;3.20;2.90;;;;;;;11.06;48.17;98721.47;5055809;28;20036;-65
2021/04/10 07:42:49;;;;;;;7.43;3.78;;;;;;;11.05;48.69;98724.91;5061795;28;20064;-63
2021/04/10 07:45:26;;;;;;;4.43;3.13;;;;;;;11.23;46.83;98719.41;5057491;28;20045;-62
2021/04/10 07:48:02;;;;;;;5.03;3.20;;;;;;;11.40;47.17;98730.19;5057104;28;20033;-62
2021/04/10 07:50:28;;;;;;;4.27;3.10;;;;;;;11.49;46.72;98734.28;5059559;28;20028;-62
2021/04/10 07:52:54;;;;;;;3.03;2.60;;;;;;;11.65;47.36;98728.78;5056299;28;20107;-62
2021/04/10 07:55:38;;;;;;;10.13;4.33;;;;;;;11.76;47.29;98729.41;5052389;28;20096;-62
2021/04/10 07:58:21;;;;;;;3.23;2.67;;;;;;;11.73;45.92;98732.06;5053381;28;20033;-63
2021/04/10 08:00:47;;;;;;;7.73;2.90;;;;;;;11.60;46.16;98730.59;5054164;28;20037;-63
2021/04/10 08:03:30;;;;;;;6.47;4.00;;;;;;;11.78;45.75;98729.38;5054850;28;20024;-63
2021/04/10 08:06:17;;;;;;;5.83;2.90;;;;;;;11.74;46.01;98735.47;5053814;28;20098;-64
2021/04/10 08:08:45;;;;;;;3.87;2.70;;;;;;;11.73;46.13;98739.75;5039389;28;20468;-64
2021/04/10 08:11:11;;;;;;;3.50;2.97;;;;;;;11.78;45.54;98737.94;5054323;28;20035;-64
2021/04/10 08:13:37;;;;;;;6.23;3.00;;;;;;;11.92;45.77;98739.38;5054920;28;20020;-60
2021/04/10 08:16:15;;;;;;;5.23;3.40;;;;;;;12.02;45.42;98738.25;5054555;28;20029;-60
2021/04/10 08:18:45;;;;;;;4.23;3.60;;;;;;;12.06;46.02;98742.44;5055360;28;20029;-59
2021/04/10 08:21:12;;;;;;;5.67;4.17;;;;;;;11.99;46.15;98746.88;5054519;28;20036;-59
2021/04/10 08:23:38;;;;;;;5.67;3.37;;;;;;;12.04;46.04;98741.66;5054708;28;20032;-61
2021/04/10 08:26:04;;;;;;;11.15;4.18;;;;;;;12.16;46.92;98742.22;5056070;28;20032;-60
2021/04/10 08:28:30;;;;;;;4.77;3.37;;;;;;;12.18;45.91;98737.00;5055157;28;20033;-59
2021/04/10 08:30:58;;;;;;;4.28;3.53;;;;;;;12.15;45.51;98747.38;5051447;28;20033;-60
2021/04/10 08:33:28;;;;;;;6.43;3.40;;;;;;;12.23;45.76;98753.16;5052650;28;20020;-60
2021/04/10 08:35:57;;;;;;;7.22;3.17;;;;;;;12.32;44.79;98750.38;5052399;28;20020;-60
2021/04/10 08:38:24;;;;;;;8.77;3.63;;;;;;;12.44;45.43;98738.94;5032702;28;20106;-60
2021/04/10 08:40:55;;;;;;;4.70;3.60;;;;;;;12.64;45.20;98737.59;5053077;28;20025;-61
2021/04/10 08:43:22;;;;;;;4.30;3.08;;;;;;;12.68;45.72;98748.66;5052571;28;20090;-61
2021/04/10 08:45:51;;;;;;;4.65;3.38;;;;;;;12.81;45.16;98744.88;5053770;28;20132;-59
2021/04/10 08:48:22;;;;;;;5.00;3.55;;;;;;;12.85;44.54;98750.78;5055508;28;20029;-59
2021/04/10 08:50:51;;;;;;;5.95;3.28;;;;;;;13.18;45.44;98744.75;5055146;28;20032;-59
2021/04/10 08:53:23;;;;;;;4.55;3.30;;;;;;;13.21;44.85;98747.25;5054729;28;20028;-60
2021/04/10 08:55:50;;;;;;;5.93;3.60;;;;;;;13.28;45.33;98751.34;5052426;28;20028;-60
2021/04/10 08:58:30;;;;;;;7.00;4.10;;;;;;;13.30;44.09;98751.28;5057191;28;20044;-59
2021/04/10 09:00:59;;;;;;;4.72;3.35;;;;;;;13.45;44.41;98754.25;5051984;28;20029;-60
2021/04/10 09:03:46;;;;;;;6.32;4.00;;;;;;;13.65;43.40;98741.69;5053394;28;20060;-61
2021/04/10 09:06:29;;;;;;;8.25;4.03;;;;;;;13.79;42.90;98745.56;5048712;28;20024;-61
2021/04/10 09:09:10;;;;;;;6.43;3.72;;;;;;;13.84;42.91;98741.94;5048818;28;20016;-61
2021/04/10 09:11:37;;;;;;;8.20;3.83;;;;;;;14.00;43.72;98747.50;5050226;28;20021;-61
2021/04/10 09:14:03;;;;;;;8.15;3.90;;;;;;;14.14;43.60;98742.75;5050851;28;20029;-61
2021/04/10 09:16:40;;;;;;;5.57;3.78;;;;;;;13.98;43.23;98736.38;5049413;28;20041;-62
2021/04/10 09:19:18;;;;;;;5.72;3.78;;;;;;;14.26;42.96;98737.19;5050421;28;20033;-61
2021/04/10 09:21:47;;;;;;;9.52;3.88;;;;;;;14.43;42.94;98734.94;5049344;28;20047;-61
2021/04/10 09:24:38;;;;;;;5.45;3.80;;;;;;;14.47;42.51;98726.19;5050156;28;20029;-61
2021/04/10 09:27:11;;;;;;;6.40;3.20;;;;;;;14.68;43.51;98732.41;5050617;28;20612;-61
2021/04/10 09:29:57;;;;;;;4.10;3.42;;;;;;;14.84;42.79;98733.56;5046840;28;20055;-61
2021/04/10 09:32:29;;;;;;;5.28;3.70;;;;;;;14.98;43.31;98730.47;5051434;28;20140;-61
2021/04/10 09:34:58;;;;;;;9.23;3.90;;;;;;;14.89;41.11;98729.09;5051142;28;20017;-61
2021/04/10 09:37:24;;;;;;;4.40;3.28;;;;;;;14.91;42.40;98723.88;5048133;28;20025;-60
2021/04/10 09:40:06;;;;;;;8.50;4.32;;;;;;;15.29;40.81;98725.91;5049714;28;20025;-60
2021/04/10 09:45:20;;;;;;;10.02;4.20;;;;;;;15.51;40.04;98721.69;5051220;28;20044;-60
2021/04/10 09:47:55;;;;;;;5.47;3.90;;;;;;;15.54;40.98;98723.31;5049498;28;20047;-61
2021/04/10 09:50:21;;;;;;;5.13;2.95;;;;;;;15.71;39.85;98722.66;5048998;28;20045;-61
2021/04/10 09:52:55;;;;;;;4.97;2.78;;;;;;;15.74;38.46;98719.97;5046496;28;20078;-61
2021/04/10 09:55:21;;;;;;;11.88;5.55;;;;;;;15.67;38.28;98715.94;5051664;28;20259;-61
2021/04/10 09:58:10;;;;;;;5.80;5.03;;;;;;;15.86;39.35;98710.00;5048577;28;20025;-60
2021/04/10 10:00:52;;;;;;;3.10;2.80;;;;;;;16.02;39.40;98711.97;5049934;28;20024;-60
2021/04/10 10:03:23;;;;;;;5.40;4.50;;;;;;;16.18;38.87;98706.13;5050583;28;20426;-61
2021/04/10 10:05:51;;;;;;;4.20;3.15;;;;;;;16.25;39.37;98702.38;5053024;28;20024;-61
2021/04/10 10:08:19;;;;;;;3.63;3.05;;;;;;;16.53;37.40;98702.09;5048460;28;20017;-61
2021/04/10 10:10:51;;;;;;;4.80;3.70;;;;;;;16.59;38.44;98706.22;5052619;28;20028;-61
2021/04/10 10:13:22;;;;;;;6.60;3.22;;;;;;;16.53;39.96;98701.25;5053325;28;20029;-61
2021/04/10 10:15:49;;;;;;;3.90;2.72;;;;;;;16.78;37.38;98700.19;5053824;28;20079;-61
2021/04/10 10:18:19;;;;;;;5.55;3.40;;;;;;;16.90;36.80;98701.41;5053075;28;20054;-61
2021/04/10 10:20:52;;;;;;;4.95;4.47;;;;;;;17.02;36.95;98705.19;5053456;28;20024;-61
2021/04/10 10:23:18;;;;;;;6.35;3.78;;;;;;;17.09;35.88;98699.72;5055445;28;20024;-62
2021/04/10 10:25:44;;;;;;;7.78;3.67;;;;;;;17.06;37.02;98697.22;5054719;28;20270;-61
2021/04/10 10:28:17;;;;;;;7.70;3.53;;;;;;;17.31;36.06;98691.81;5055024;28;20025;-61
2021/04/10 10:30:44;;;;;;;4.20;3.15;;;;;;;17.30;34.67;98695.31;5055149;28;20101;-61
2021/04/10 10:33:09;;;;;;;8.95;3.20;;;;;;;17.21;35.44;98687.94;5052232;28;20031;-61
2021/04/10 10:35:35;;;;;;;6.25;3.13;;;;;;;17.26;35.34;98694.63;5055651;28;20013;-61
2021/04/10 10:38:06;;;;;;;4.72;3.42;;;;;;;17.17;35.51;98687.25;5051091;28;20075;-61
2021/04/10 10:40:32;;;;;;;4.60;3.35;;;;;;;17.41;35.11;98685.28;5052785;28;20041;-61
2021/04/10 10:43:05;;;;;;;5.70;3.22;;;;;;;17.43;33.88;98677.47;5054601;28;20021;-60
2021/04/10 10:45:47;;;;;;;6.47;3.35;;;;;;;17.46;33.97;98677.31;5051231;28;20044;-61
2021/04/10 10:48:31;;;;;;;8.13;3.20;;;;;;;17.34;34.43;98679.56;5053956;28;20366;-60
2021/04/10 10:50:59;;;;;;;6.70;3.97;;;;;;;17.08;36.30;98671.28;5054150;28;20036;-61
2021/04/10 10:53:27;;;;;;;3.95;3.03;;;;;;;17.34;34.94;98676.97;5052969;28;20319;-61
2021/04/10 10:56:01;;;;;;;3.30;2.97;;;;;;;17.36;34.68;98667.34;5054051;28;20032;-61
2021/04/10 10:58:36;;;;;;;4.03;2.97;;;;;;;17.54;34.35;98672.59;5054813;28;20035;-61
2021/04/10 11:01:10;;;;;;;;;;;;;;;17.64;34.98;98672.16;5054250;28;20556;-61
2021/04/10 11:03:35;;;;;;;4.07;2.50;;;;;;;17.86;34.42;98656.44;5050070;28;19928;-61
2021/04/10 11:06:01;;;;;;;5.57;3.42;;;;;;;17.91;33.65;98653.63;5011454;28;20033;-61
2021/04/10 11:08:27;;;;;;;6.88;3.40;;;;;;;17.76;33.46;98655.16;5032167;28;20071;-61
2021/04/10 11:10:54;;;;;;;4.47;3.30;;;;;;;17.75;33.21;98643.09;5036564;28;20074;-60
2021/04/10 11:13:20;;;;;;;6.57;3.13;;;;;;;17.77;34.40;98638.72;5035147;28;20036;-60
2021/04/10 11:15:47;;;;;;;3.72;3.05;;;;;;;17.75;33.31;98649.13;5019876;28;20051;-61
2021/04/10 11:18:29;;;;;;;3.90;3.30;;;;;;;17.74;33.73;98639.66;5032203;28;20025;-61
2021/04/10 11:21:10;;;;;;;3.88;3.03;;;;;;;17.63;34.30;98633.31;5030799;28;20137;-60
2021/04/10 11:23:57;;;;;;;5.90;2.75;;;;;;;18.00;32.50;98635.81;5032013;28;20337;-61
2021/04/10 11:26:47;;;;;;;2.72;2.53;;;;;;;18.18;32.32;98639.28;5033380;28;20123;-61
2021/04/10 11:29:16;;;;;;;5.95;3.13;;;;;;;18.41;31.75;98640.72;5035356;28;20096;-61
2021/04/10 11:32:05;;;;;;;7.18;3.90;;;;;;;18.31;33.72;98640.34;5038411;28;20029;-61
2021/04/10 11:34:32;;;;;;;4.45;3.28;;;;;;;18.54;31.70;98642.63;5032792;28;20466;-61
2021/04/10 11:36:58;;;;;;;3.28;2.70;;;;;;;18.57;31.45;98639.91;5033529;28;20081;-61
2021/04/10 11:39:27;;;;;;;5.70;3.55;;;;;;;18.59;31.48;98640.66;5033948;28;20041;-61
2021/04/10 11:41:53;;;;;;;6.43;3.78;;;;;;;18.39;32.49;98634.75;5017562;28;20029;-61
2021/04/10 11:44:20;;;;;;;3.45;3.03;;;;;;;18.52;31.49;98630.63;5019197;28;20026;-62
2021/04/10 11:46:45;;;;;;;4.10;3.70;;;;;;;18.53;30.96;98630.59;5034772;28;20025;-60
2021/04/10 11:49:28;;;;;;;6.70;4.07;;;;;;;18.49;31.34;98630.78;5034196;28;20021;-60
2021/04/10 11:51:54;;;;;;;7.07;4.32;;;;;;;18.38;32.07;98633.06;5031739;28;20041;-60